セブ の空港の天気 - METARとTAF

マクタン・セブ国際空港 ( RPVM / CEB ) - フィリピン セブ / ラプ=ラプ
飛行場実況気象(Metar)
観測時間01/20 09:00 PHT (01/20 01:00 UTC)
風向・風速北 5m/s
視程10km以上
天気現象
全天の4割程度の雲 雲底高度 610m
全天の8割程度の雲 雲底高度 9140m
気温28℃
湿度79%
気圧1014hPa
METARRPVM 200100Z 01009KT 9999 SCT020 BKN300 28/24 Q1014 NOSIG RMK A2994
過去の天気等 Google飛行場航空写真 Wunderground天気予報

過去48時間のMETAR

飛行場予報(TAF)
発表時間: 1/20 07:00 PHT (1/19 23:00 UTC)
予報対象時間: 20日8時 PHT ~ 21日14時 PHT
風向・風速北北東 4m/s
視程10km以上
少しの雲 雲底高度 610m
全天の8割程度の雲 雲底高度 3,050m
20日8時 PHT ~ 20日14時 PHT に一時的に
風向・風速北 5m/s
全天の4割程度の雲 雲底高度 610m
全天を覆う雲 雲底高度 2,740m
20日14時 PHT ~ 20日20時 PHT に一時的に
風向・風速北 6m/s
視程9,000m
天気現象弱い雨
全天の4割程度の雲 雲底高度 610m
全天を覆う雲 雲底高度 2,440m
TAF RPVM 192300Z 2000/2106 02008KT 9999 FEW020 BKN100
TEMPO 2000/2006 36010KT SCT020 OVC090
TEMPO 2006/2012 36012KT 9000 -RA SCT020 OVC080